Time;durP1;ratioP1;P1;durP2;ratioP2;P2;SDS_P1;SDS_P2;PMS_P1;PMS_P2;Temp;Humidity;BMP_temperature;BMP_pressure;BME280_temperature;BME280_humidity;BME280_pressure;Samples;Min_cycle;Max_cycle;Signal;HPM_P1;HPM_P2
2022/11/21 00:01:28;;;;;;;0.63;0.50;;;;;;;6.90;83.66;97934.94;4934969;28;103147;-61
2022/11/21 00:04:01;;;;;;;1.43;0.50;;;;;;;6.96;83.58;97925.78;4937488;28;104029;-61
2022/11/21 00:06:28;;;;;;;1.37;0.67;;;;;;;6.97;83.48;97922.19;4934014;28;103447;-60
2022/11/21 00:08:56;;;;;;;1.70;0.50;;;;;;;6.88;83.44;97925.44;4931230;28;103191;-60
2022/11/21 00:11:24;;;;;;;1.27;0.60;;;;;;;6.92;83.56;97921.69;4934821;28;102562;-61
2022/11/21 00:13:52;;;;;;;1.63;0.77;;;;;;;7.03;82.99;97913.88;4940296;28;103112;-60
2022/11/21 00:16:20;;;;;;;1.57;0.60;;;;;;;7.06;83.65;97913.66;4932903;28;103717;-61
2022/11/21 00:18:48;;;;;;;1.50;0.60;;;;;;;6.99;84.06;97912.41;4941407;28;103239;-61
2022/11/21 00:21:19;;;;;;;1.00;0.50;;;;;;;6.92;84.22;97905.91;4934654;28;102995;-61
2022/11/21 00:23:47;;;;;;;0.50;0.50;;;;;;;6.89;84.37;97901.72;4931375;28;102650;-61
2022/11/21 00:26:16;;;;;;;0.67;0.47;;;;;;;6.94;84.25;97904.88;4929586;28;104417;-61
2022/11/21 00:28:45;;;;;;;0.40;0.40;;;;;;;7.00;83.68;97895.72;4927104;28;104289;-60
2022/11/21 00:31:19;;;;;;;0.80;0.47;;;;;;;7.04;83.86;97901.59;4925868;28;103418;-61
2022/11/21 00:33:47;;;;;;;1.40;0.50;;;;;;;6.80;84.60;97906.75;4933360;28;103387;-61
2022/11/21 00:36:15;;;;;;;1.77;0.40;;;;;;;6.88;84.79;97900.03;4941644;28;103397;-60
2022/11/21 00:38:44;;;;;;;1.33;0.40;;;;;;;7.09;83.93;97892.44;4929232;28;103278;-60
2022/11/21 00:41:12;;;;;;;1.03;0.40;;;;;;;7.19;83.34;97890.84;4933878;28;102650;-61
2022/11/21 00:43:40;;;;;;;0.63;0.40;;;;;;;7.07;83.20;97878.59;4928830;28;103203;-60
2022/11/21 00:46:07;;;;;;;0.93;0.40;;;;;;;7.04;83.23;97878.81;4933062;28;103155;-61
2022/11/21 00:48:35;;;;;;;0.57;0.40;;;;;;;7.05;83.06;97875.22;4928651;28;103179;-60
2022/11/21 00:51:03;;;;;;;1.27;0.50;;;;;;;6.92;83.21;97871.78;4926994;28;102559;-60
2022/11/21 00:53:31;;;;;;;0.60;0.40;;;;;;;6.80;83.27;97867.38;4926843;28;103502;-60
2022/11/21 00:56:00;;;;;;;0.40;0.40;;;;;;;6.93;83.43;97866.41;4928650;28;103826;-60
2022/11/21 00:58:28;;;;;;;1.27;0.40;;;;;;;6.86;83.80;97859.09;4928159;28;104144;-60
2022/11/21 01:01:04;;;;;;;0.63;0.40;;;;;;;6.88;84.07;97863.28;4924322;28;102640;-60
2022/11/21 01:03:33;;;;;;;0.40;0.30;;;;;;;6.86;83.37;97865.19;4930506;28;104047;-61
2022/11/21 01:06:03;;;;;;;0.80;0.50;;;;;;;6.88;83.60;97852.78;4926168;28;103873;-60
2022/11/21 01:08:31;;;;;;;1.70;0.43;;;;;;;6.89;84.00;97858.88;4948065;28;103248;-61
2022/11/21 01:11:04;;;;;;;1.73;0.60;;;;;;;6.71;84.44;97862.81;4931116;28;102615;-61
2022/11/21 01:13:32;;;;;;;0.30;0.30;;;;;;;6.80;84.38;97859.50;4946940;28;102711;-60
2022/11/21 01:16:04;;;;;;;1.53;0.50;;;;;;;6.83;84.52;97867.16;4923210;28;104604;-60
2022/11/21 01:18:32;;;;;;;1.07;0.53;;;;;;;6.91;84.16;97873.56;4933448;28;103199;-61
2022/11/21 01:21:00;;;;;;;1.03;0.53;;;;;;;6.87;84.64;97866.03;4931078;28;102702;-60
2022/11/21 01:23:29;;;;;;;0.90;0.50;;;;;;;6.96;83.93;97860.13;4930982;28;104514;-60
2022/11/21 01:26:03;;;;;;;2.37;0.80;;;;;;;6.80;84.20;97854.25;4933046;28;103705;-60
2022/11/21 01:28:33;;;;;;;1.60;0.60;;;;;;;6.84;85.16;97856.56;4928136;28;103221;-60
2022/11/21 01:31:06;;;;;;;0.83;0.40;;;;;;;6.76;85.96;97858.06;4935473;28;103061;-60
2022/11/21 01:33:35;;;;;;;1.03;0.60;;;;;;;7.00;85.70;97867.66;4932649;28;103927;-60
2022/11/21 01:36:07;;;;;;;0.67;0.63;;;;;;;7.13;85.32;97867.63;4935032;28;103284;-60
2022/11/21 01:38:35;;;;;;;1.13;0.50;;;;;;;7.19;85.68;97856.69;4927249;28;104820;-60
2022/11/21 01:41:05;;;;;;;0.90;0.50;;;;;;;7.18;85.54;97859.44;4936992;28;103005;-61
2022/11/21 01:43:33;;;;;;;3.30;0.70;;;;;;;6.57;88.00;97868.16;4933160;28;104085;-60
2022/11/21 01:46:04;;;;;;;1.57;0.67;;;;;;;6.59;89.26;97856.63;4928354;28;103944;-60
2022/11/21 01:48:37;;;;;;;2.63;0.60;;;;;;;6.27;90.06;97856.19;4924140;28;103264;-60
2022/11/21 01:51:09;;;;;;;1.40;0.57;;;;;;;6.08;91.38;97853.16;4948479;28;103257;-63
2022/11/21 01:53:39;;;;;;;1.30;0.50;;;;;;;6.33;91.07;97845.28;4938157;28;103669;-64
2022/11/21 01:56:09;;;;;;;1.23;0.43;;;;;;;6.39;90.41;97847.50;4935182;28;104238;-63
2022/11/21 01:58:39;;;;;;;0.90;0.60;;;;;;;6.40;90.60;97846.53;4928705;28;104464;-63
2022/11/21 02:01:08;;;;;;;0.60;0.40;;;;;;;6.34;90.93;97836.44;4936833;28;102791;-62
2022/11/21 02:03:40;;;;;;;2.03;0.40;;;;;;;6.25;91.49;97837.09;4927467;28;102695;-62
2022/11/21 02:06:09;;;;;;;1.07;0.43;;;;;;;6.27;91.27;97835.22;4921466;28;103286;-62
2022/11/21 02:08:37;;;;;;;1.07;0.60;;;;;;;6.22;91.03;97836.47;4927978;28;103292;-63
2022/11/21 02:11:15;;;;;;;2.10;0.60;;;;;;;6.26;91.30;97841.38;4925973;28;102783;-63
2022/11/21 02:13:43;;;;;;;0.40;0.40;;;;;;;6.19;91.54;97848.00;4932900;28;102855;-62
2022/11/21 02:16:11;;;;;;;2.00;0.80;;;;;;;6.29;91.37;97835.94;4926884;28;104380;-62
2022/11/21 02:18:39;;;;;;;1.97;0.60;;;;;;;6.31;91.18;97846.34;4933385;28;103217;-62
2022/11/21 02:21:16;;;;;;;1.63;0.50;;;;;;;6.36;90.58;97839.84;4926950;28;102963;-63
2022/11/21 02:23:50;;;;;;;1.80;0.60;;;;;;;6.40;90.90;97841.28;4935274;28;102723;-62
2022/11/21 02:26:22;;;;;;;0.87;0.50;;;;;;;6.40;90.47;97841.28;4934434;28;103698;-60
2022/11/21 02:28:50;;;;;;;0.90;0.50;;;;;;;6.52;90.19;97844.84;4939017;28;103222;-60
2022/11/21 02:31:18;;;;;;;1.23;0.30;;;;;;;6.68;89.98;97839.38;4920452;28;102714;-61
2022/11/21 02:33:46;;;;;;;1.63;0.50;;;;;;;6.45;90.23;97842.75;4937054;28;102572;-61
2022/11/21 02:36:37;;;;;;;0.90;0.40;;;;;;;6.34;90.73;97831.22;4937362;28;104002;-61
2022/11/21 02:39:06;;;;;;;1.23;0.60;;;;;;;6.33;91.47;97826.94;4948980;28;104208;-61
2022/11/21 02:41:40;;;;;;;0.43;0.40;;;;;;;6.36;90.72;97834.59;4924795;28;102770;-60
2022/11/21 02:44:15;;;;;;;0.83;0.43;;;;;;;6.09;90.18;97828.56;4935147;28;102733;-61
2022/11/21 02:46:48;;;;;;;1.20;1.10;;;;;;;6.01;90.91;97827.41;4916250;28;103964;-60
2022/11/21 02:49:22;;;;;;;0.90;0.50;;;;;;;6.01;91.27;97828.25;4923532;28;103273;-61
2022/11/21 02:51:49;;;;;;;0.97;0.30;;;;;;;5.96;91.77;97825.13;4931146;28;102554;-61
2022/11/21 02:54:17;;;;;;;1.80;0.40;;;;;;;6.02;91.07;97829.09;4931723;28;104504;-60
2022/11/21 02:56:46;;;;;;;2.57;0.50;;;;;;;5.95;90.60;97818.19;4934033;28;103833;-61
2022/11/21 02:59:14;;;;;;;0.57;0.40;;;;;;;5.82;91.15;97810.28;4928163;28;103440;-61
2022/11/21 03:01:42;;;;;;;0.40;0.40;;;;;;;6.16;90.43;97805.41;4921057;28;102834;-61
2022/11/21 03:04:10;;;;;;;0.43;0.43;;;;;;;6.22;90.25;97815.50;4931636;28;102681;-60
2022/11/21 03:06:38;;;;;;;1.50;0.60;;;;;;;6.11;89.66;97810.97;4929552;28;104143;-61
2022/11/21 03:09:06;;;;;;;0.70;0.30;;;;;;;5.96;89.54;97813.78;4945147;28;104170;-60
2022/11/21 03:11:33;;;;;;;1.27;0.50;;;;;;;5.99;89.26;97803.09;4934349;28;102594;-60
2022/11/21 03:14:03;;;;;;;2.03;0.43;;;;;;;6.02;89.33;97795.03;4924522;28;104027;-61
2022/11/21 03:16:31;;;;;;;0.30;0.30;;;;;;;6.22;88.86;97784.00;4942842;28;103839;-60
2022/11/21 03:18:58;;;;;;;1.07;0.40;;;;;;;6.24;88.38;97787.34;4947155;28;103933;-61
2022/11/21 03:21:26;;;;;;;1.20;0.50;;;;;;;6.18;88.11;97796.50;4935607;28;102605;-61
2022/11/21 03:23:54;;;;;;;0.83;0.40;;;;;;;5.96;89.73;97795.44;4934553;28;103879;-60
2022/11/21 03:26:22;;;;;;;1.90;0.40;;;;;;;6.05;89.60;97795.66;4934391;28;104163;-60
2022/11/21 03:28:50;;;;;;;0.30;0.30;;;;;;;6.13;89.42;97795.13;4931475;28;104375;-61
2022/11/21 03:31:19;;;;;;;0.40;0.40;;;;;;;6.23;88.77;97791.75;4928520;28;102882;-61
2022/11/21 03:33:47;;;;;;;0.30;0.30;;;;;;;6.39;88.39;97797.66;4932653;28;103728;-61
2022/11/21 03:36:15;;;;;;;0.30;0.30;;;;;;;6.28;88.02;97794.94;4928375;28;104199;-60
2022/11/21 03:38:43;;;;;;;0.70;0.30;;;;;;;6.40;88.33;97796.69;4931576;28;103223;-61
2022/11/21 03:43:55;;;;;;;0.40;0.40;;;;;;;6.47;88.50;97788.38;4932483;28;103872;-60
2022/11/21 03:46:24;;;;;;;0.30;0.30;;;;;;;6.33;88.97;97790.19;4932212;28;103673;-60
2022/11/21 03:48:52;;;;;;;0.30;0.30;;;;;;;6.48;88.17;97785.69;4935020;28;103269;-61
2022/11/21 03:51:20;;;;;;;1.17;0.40;;;;;;;6.52;87.42;97792.38;4930060;28;102762;-61
2022/11/21 03:53:48;;;;;;;0.50;0.40;;;;;;;6.69;87.67;97793.81;4938870;28;103981;-60
2022/11/21 03:56:18;;;;;;;0.87;0.37;;;;;;;6.76;87.37;97789.81;4937693;28;103295;-60
2022/11/21 03:58:46;;;;;;;0.30;0.30;;;;;;;6.73;87.37;97795.28;4953578;28;104138;-61
2022/11/21 04:01:16;;;;;;;0.40;0.40;;;;;;;6.76;87.63;97787.19;4936456;28;102573;-60
2022/11/21 04:03:46;;;;;;;0.20;0.20;;;;;;;6.79;88.23;97790.41;4926182;28;104594;-62
2022/11/21 04:06:17;;;;;;;0.37;0.33;;;;;;;6.91;88.00;97799.19;4933393;28;103293;-62
2022/11/21 04:08:44;;;;;;;0.60;0.40;;;;;;;6.81;88.10;97792.94;4939281;28;104524;-62
2022/11/21 04:11:12;;;;;;;0.73;0.40;;;;;;;6.86;87.50;97791.66;4928697;28;102733;-62
2022/11/21 04:13:40;;;;;;;0.40;0.30;;;;;;;6.67;87.76;97795.72;4923483;28;103591;-62
2022/11/21 04:16:11;;;;;;;0.60;0.27;;;;;;;6.79;87.43;97793.03;4929828;28;103516;-62
2022/11/21 04:18:39;;;;;;;0.40;0.30;;;;;;;6.86;87.36;97788.19;4938036;28;103018;-62
2022/11/21 04:21:08;;;;;;;0.40;0.40;;;;;;;6.87;87.37;97787.25;4925119;28;102710;-62
2022/11/21 04:23:36;;;;;;;0.53;0.33;;;;;;;6.87;87.78;97782.00;4926137;28;103778;-62
2022/11/21 04:26:05;;;;;;;0.60;0.47;;;;;;;6.60;88.98;97789.19;4928842;28;103299;-63
2022/11/21 04:33:00;;;;;;;0.87;0.50;;;;;;;6.77;88.64;97787.06;4906489;28;104078;-61
2022/11/21 04:35:28;;;;;;;1.00;0.47;;;;;;;6.71;88.51;97777.00;4927372;28;102993;-61
2022/11/21 04:37:57;;;;;;;0.40;0.40;;;;;;;6.69;88.84;97780.69;4942856;28;103204;-60
2022/11/21 04:40:25;;;;;;;0.57;0.43;;;;;;;6.70;88.85;97782.38;4939632;28;104225;-61
2022/11/21 04:42:53;;;;;;;0.63;0.47;;;;;;;6.46;90.27;97781.47;4933178;28;102699;-60
2022/11/21 04:45:21;;;;;;;0.30;0.30;;;;;;;6.52;90.20;97787.13;4917265;28;103673;-60
2022/11/21 04:47:49;;;;;;;1.20;0.70;;;;;;;6.48;90.42;97782.19;4920208;28;103089;-60
2022/11/21 04:50:18;;;;;;;0.20;0.20;;;;;;;6.46;90.66;97781.47;4922343;28;103267;-60
2022/11/21 04:52:50;;;;;;;0.70;0.57;;;;;;;6.46;91.31;97782.28;4921407;28;102640;-60
2022/11/21 04:55:20;;;;;;;1.10;0.60;;;;;;;6.46;90.97;97781.47;4924395;28;104089;-62
2022/11/21 04:57:48;;;;;;;0.47;0.40;;;;;;;6.63;90.81;97783.72;4922760;28;103633;-61
2022/11/21 05:00:17;;;;;;;1.03;0.60;;;;;;;6.77;90.32;97778.34;4931210;28;103203;-61
2022/11/21 05:02:51;;;;;;;2.23;0.60;;;;;;;6.67;90.59;97779.94;4921428;28;102721;-62
2022/11/21 05:05:19;;;;;;;0.47;0.47;;;;;;;6.82;89.89;97779.69;4916760;28;103738;-62
2022/11/21 05:07:47;;;;;;;0.97;0.50;;;;;;;6.67;90.23;97774.72;4920282;28;103726;-62
2022/11/21 05:10:14;;;;;;;0.67;0.50;;;;;;;6.82;89.84;97776.25;4916721;28;103400;-62
2022/11/21 05:15:29;;;;;;;0.83;0.60;;;;;;;6.60;90.55;97786.56;4920227;28;103575;-62
2022/11/21 05:17:59;;;;;;;1.60;0.50;;;;;;;6.78;90.33;97775.63;4950143;28;104240;-62
2022/11/21 05:20:27;;;;;;;2.53;0.60;;;;;;;6.70;90.35;97766.63;4917487;28;103261;-62
2022/11/21 05:22:55;;;;;;;0.83;0.43;;;;;;;6.79;90.33;97769.41;4922115;28;102676;-63
2022/11/21 05:25:22;;;;;;;1.60;0.60;;;;;;;6.71;90.16;97781.44;4921377;28;104008;-62
2022/11/21 05:27:57;;;;;;;1.00;0.50;;;;;;;6.79;89.76;97784.34;4916678;28;103707;-62
2022/11/21 05:30:25;;;;;;;0.40;0.40;;;;;;;7.02;89.84;97780.88;4920593;28;102955;-61
2022/11/21 05:32:53;;;;;;;1.70;0.50;;;;;;;7.07;89.51;97793.69;4923091;28;103032;-61
2022/11/21 05:35:20;;;;;;;1.43;0.90;;;;;;;7.13;89.44;97791.44;4924928;28;103844;-61
2022/11/21 05:37:56;;;;;;;0.60;0.43;;;;;;;7.06;89.49;97792.84;4915699;28;103753;-61
2022/11/21 05:40:24;;;;;;;2.13;0.60;;;;;;;7.07;89.77;97791.06;4927633;28;103373;-61
2022/11/21 05:45:38;;;;;;;0.50;0.50;;;;;;;7.20;89.08;97797.94;4923870;28;103487;-61
2022/11/21 05:48:07;;;;;;;1.33;0.63;;;;;;;7.22;88.63;97803.91;4932279;28;103761;-61
2022/11/21 05:50:35;;;;;;;0.50;0.50;;;;;;;7.28;88.87;97805.25;4923466;28;103279;-61
2022/11/21 05:53:04;;;;;;;0.97;0.70;;;;;;;7.16;88.09;97807.00;4923174;28;102878;-61
2022/11/21 05:55:34;;;;;;;1.80;1.10;;;;;;;7.06;89.61;97810.41;4925930;28;102693;-62
2022/11/21 05:58:02;;;;;;;1.23;0.50;;;;;;;7.12;89.79;97813.44;4915959;28;104128;-61
2022/11/21 06:00:30;;;;;;;1.07;0.53;;;;;;;7.16;89.46;97817.50;4931550;28;103200;-61
2022/11/21 06:05:44;;;;;;;1.63;1.20;;;;;;;7.12;89.24;97808.19;4922132;28;103909;-61
2022/11/21 06:08:12;;;;;;;2.00;0.90;;;;;;;7.14;89.92;97802.78;4914938;28;103983;-62
2022/11/21 06:10:40;;;;;;;1.70;0.90;;;;;;;7.18;89.17;97805.13;4914091;28;104104;-62
2022/11/21 06:13:20;;;;;;;2.93;1.23;;;;;;;7.13;88.73;97807.22;4919782;28;103055;-61
2022/11/21 06:15:50;;;;;;;1.43;0.80;;;;;;;7.19;89.08;97804.13;4921497;28;104105;-62
2022/11/21 06:18:20;;;;;;;1.53;0.97;;;;;;;7.12;88.60;97802.94;4914889;28;104225;-62
2022/11/21 06:20:48;;;;;;;1.00;0.80;;;;;;;7.03;89.25;97803.56;4930238;28;103205;-61
2022/11/21 06:23:19;;;;;;;2.07;1.00;;;;;;;7.00;89.06;97798.53;4912492;28;103157;-61
2022/11/21 06:25:47;;;;;;;2.90;1.00;;;;;;;6.96;89.09;97797.09;4917667;28;104392;-61
2022/11/21 06:28:15;;;;;;;2.30;1.37;;;;;;;7.05;89.31;97801.66;4922832;28;103333;-62
2022/11/21 06:30:45;;;;;;;1.67;0.93;;;;;;;6.99;89.75;97808.22;4924092;28;103357;-61
2022/11/21 06:33:12;;;;;;;2.03;1.20;;;;;;;6.95;89.96;97803.28;4920802;28;102968;-61
2022/11/21 06:35:42;;;;;;;1.60;0.80;;;;;;;6.91;89.82;97793.94;4924320;28;102830;-62
2022/11/21 06:38:12;;;;;;;4.03;1.20;;;;;;;6.95;89.35;97798.88;4918564;28;104444;-62
2022/11/21 06:40:40;;;;;;;2.10;1.17;;;;;;;7.00;88.93;97795.91;4916157;28;103230;-61
2022/11/21 06:43:08;;;;;;;3.03;0.97;;;;;;;7.08;88.34;97811.97;4925057;28;102690;-62
2022/11/21 06:45:38;;;;;;;2.83;1.07;;;;;;;6.69;89.02;97804.31;4912116;28;103905;-62
2022/11/21 06:48:07;;;;;;;1.23;1.00;;;;;;;6.86;88.96;97803.94;4919285;28;103707;-61
2022/11/21 06:50:38;;;;;;;1.20;0.80;;;;;;;6.95;88.10;97809.41;4914911;28;104192;-62
2022/11/21 06:53:07;;;;;;;2.60;1.00;;;;;;;6.95;87.25;97819.06;4913547;28;102975;-62
2022/11/21 06:55:35;;;;;;;3.93;1.23;;;;;;;6.87;87.95;97824.00;4914190;28;103997;-62
2022/11/21 06:58:03;;;;;;;1.80;0.90;;;;;;;6.95;88.35;97821.69;4912954;28;104015;-62
2022/11/21 07:00:31;;;;;;;1.43;0.70;;;;;;;6.94;88.64;97820.00;4906568;28;103169;-62
2022/11/21 07:03:01;;;;;;;1.27;0.90;;;;;;;7.06;87.65;97824.38;4906643;28;102779;-61
2022/11/21 07:05:31;;;;;;;2.80;1.07;;;;;;;7.10;87.55;97825.84;4910611;28;102644;-62
2022/11/21 07:07:59;;;;;;;1.97;1.00;;;;;;;7.12;87.41;97823.94;4918426;28;104217;-62
2022/11/21 07:10:29;;;;;;;2.17;1.10;;;;;;;6.94;87.72;97820.00;4903714;28;103219;-62
2022/11/21 07:15:43;;;;;;;1.43;0.90;;;;;;;7.17;87.78;97824.44;4912595;28;103631;-62
2022/11/21 07:18:12;;;;;;;2.27;1.57;;;;;;;6.82;88.57;97818.25;4907776;28;104316;-62
2022/11/21 07:20:41;;;;;;;4.23;1.17;;;;;;;7.15;87.96;97818.47;4908131;28;104160;-62
2022/11/21 07:23:09;;;;;;;1.40;1.07;;;;;;;7.32;86.52;97820.72;4917959;28;102675;-62
2022/11/21 07:25:40;;;;;;;2.87;1.10;;;;;;;7.68;86.33;97816.31;4911949;28;102673;-62
2022/11/21 07:28:09;;;;;;;2.83;1.00;;;;;;;7.74;85.52;97811.44;4914473;28;103870;-62
2022/11/21 07:30:37;;;;;;;1.80;1.20;;;;;;;7.76;85.29;97809.53;4911279;28;103171;-62
2022/11/21 07:33:08;;;;;;;1.17;0.90;;;;;;;7.52;86.31;97812.19;4930829;28;102771;-62
2022/11/21 07:35:36;;;;;;;1.67;1.10;;;;;;;7.18;86.62;97809.53;4917992;28;104771;-62
2022/11/21 07:38:05;;;;;;;2.83;0.87;;;;;;;7.21;87.32;97812.78;4912789;28;103185;-62
2022/11/21 07:40:33;;;;;;;2.03;1.00;;;;;;;7.36;86.74;97811.63;4907305;28;103290;-62
2022/11/21 07:43:04;;;;;;;1.73;1.10;;;;;;;7.27;86.33;97811.50;4914201;28;103164;-61
2022/11/21 07:45:38;;;;;;;1.47;0.90;;;;;;;7.32;86.37;97815.47;4917900;28;103649;-62
2022/11/21 07:48:07;;;;;;;2.33;0.90;;;;;;;7.36;85.93;97808.16;4915574;28;102982;-62
2022/11/21 07:50:35;;;;;;;2.13;1.30;;;;;;;7.49;84.48;97804.53;4919210;28;103685;-62
2022/11/21 07:53:05;;;;;;;1.50;1.20;;;;;;;7.29;84.73;97805.16;4911091;28;102779;-61
2022/11/21 07:55:33;;;;;;;1.23;0.97;;;;;;;7.46;85.08;97817.91;4915234;28;103733;-61
2022/11/21 07:58:10;;;;;;;2.70;1.23;;;;;;;8.23;84.65;97819.09;4909986;28;103697;-62
2022/11/21 08:00:41;;;;;;;1.87;1.30;;;;;;;8.11;82.64;97815.59;4947758;28;103261;-62
2022/11/21 08:03:10;;;;;;;4.13;1.47;;;;;;;8.36;81.43;97817.22;4947320;28;102873;-62
2022/11/21 08:05:40;;;;;;;2.00;1.30;;;;;;;8.72;80.52;97806.47;4948780;28;103747;-62
2022/11/21 08:08:08;;;;;;;2.10;1.00;;;;;;;8.74;80.06;97815.06;4963494;28;103934;-62
2022/11/21 08:10:38;;;;;;;2.57;1.33;;;;;;;8.92;78.95;97827.75;4952919;28;103381;-62
2022/11/21 08:13:06;;;;;;;3.13;1.30;;;;;;;8.85;79.18;97834.44;4958394;28;102630;-62
2022/11/21 08:15:35;;;;;;;1.47;1.10;;;;;;;9.20;78.60;97827.25;4950440;28;103036;-62
2022/11/21 08:18:08;;;;;;;1.90;1.00;;;;;;;9.52;77.90;97817.53;4940312;28;104037;-62
2022/11/21 08:20:36;;;;;;;3.13;1.03;;;;;;;9.31;77.14;97811.41;4960467;28;103291;-62
2022/11/21 08:23:04;;;;;;;1.73;1.30;;;;;;;9.58;75.08;97806.50;4951396;28;102668;-61
2022/11/21 08:25:33;;;;;;;3.03;1.20;;;;;;;9.44;75.05;97803.31;4952221;28;102698;-62
2022/11/21 08:28:01;;;;;;;1.53;0.93;;;;;;;9.63;76.01;97792.91;4959437;28;103686;-62
2022/11/21 08:30:30;;;;;;;1.83;1.07;;;;;;;9.75;74.86;97803.31;4954874;28;102984;-62
2022/11/21 08:32:59;;;;;;;3.10;0.90;;;;;;;9.83;74.21;97800.03;4934453;28;103060;-62
2022/11/21 08:35:28;;;;;;;1.33;1.07;;;;;;;9.90;73.79;97802.03;4954665;28;103777;-62
2022/11/21 08:37:57;;;;;;;2.23;0.80;;;;;;;10.27;72.42;97804.25;4954624;28;104309;-62
2022/11/21 08:40:26;;;;;;;2.03;1.03;;;;;;;10.72;72.80;97797.63;4947697;28;103216;-62
2022/11/21 08:42:56;;;;;;;1.10;0.90;;;;;;;10.50;73.60;97799.66;4952226;28;103923;-62
2022/11/21 08:45:24;;;;;;;2.30;1.03;;;;;;;10.30;73.60;97793.44;4951287;28;104285;-62
2022/11/21 08:47:52;;;;;;;3.03;1.23;;;;;;;10.63;71.80;97790.53;4953902;28;103300;-62
2022/11/21 08:50:22;;;;;;;3.83;0.90;;;;;;;10.69;70.00;97784.72;4955451;28;103209;-62
2022/11/21 08:52:51;;;;;;;3.70;1.40;;;;;;;10.28;69.88;97785.63;4954904;28;102809;-62
2022/11/21 08:55:19;;;;;;;3.00;1.20;;;;;;;10.39;71.00;97782.91;4951457;28;102645;-62
2022/11/21 08:57:46;;;;;;;6.17;1.27;;;;;;;10.26;69.28;97786.72;4956057;28;104366;-62
2022/11/21 09:00:15;;;;;;;1.00;0.90;;;;;;;10.67;70.15;97789.28;4952566;28;103700;-62
2022/11/21 09:02:43;;;;;;;7.03;1.23;;;;;;;10.29;68.81;97776.75;4958834;28;102610;-62
2022/11/21 09:05:11;;;;;;;3.87;1.30;;;;;;;10.35;68.83;97786.78;4949459;28;104225;-63
2022/11/21 09:07:41;;;;;;;4.17;1.20;;;;;;;10.22;66.96;97793.22;4954629;28;103263;-62
2022/11/21 09:10:10;;;;;;;4.30;1.27;;;;;;;10.15;70.41;97781.53;4952990;28;104407;-62
2022/11/21 09:12:38;;;;;;;5.00;1.13;;;;;;;10.36;68.34;97780.53;4942514;28;103235;-62
2022/11/21 09:18:05;;;;;;;3.13;1.20;;;;;;;10.55;66.76;97766.59;4927062;28;107590;-62
2022/11/21 09:20:38;;;;;;;3.97;1.30;;;;;;;10.79;68.18;97758.31;4946271;28;103194;-62
2022/11/21 09:23:09;;;;;;;3.63;0.83;;;;;;;10.50;67.15;97760.84;4953376;28;102610;-62
2022/11/21 09:25:36;;;;;;;1.40;0.93;;;;;;;10.30;67.62;97762.56;4935998;28;104145;-62
2022/11/21 09:28:07;;;;;;;4.30;1.50;;;;;;;10.74;67.54;97761.38;4950370;28;104020;-62
2022/11/21 09:30:35;;;;;;;3.67;1.00;;;;;;;11.27;66.31;97769.84;4947140;28;104375;-62
2022/11/21 09:33:04;;;;;;;3.67;1.40;;;;;;;10.53;67.83;97760.59;4951423;28;102951;-62
2022/11/21 09:35:32;;;;;;;1.43;0.97;;;;;;;10.35;68.44;97762.19;4933474;28;102849;-62
2022/11/21 09:38:00;;;;;;;3.90;1.30;;;;;;;10.26;68.70;97760.34;4959168;28;104156;-62
2022/11/21 09:40:32;;;;;;;3.70;1.07;;;;;;;10.21;69.11;97762.53;4956657;28;103285;-62
2022/11/21 09:43:23;;;;;;;4.70;1.13;;;;;;;10.48;67.19;97763.63;4958104;28;102691;-61
2022/11/21 09:45:54;;;;;;;3.20;1.27;;;;;;;10.20;68.21;97766.97;4954347;28;102725;-61
2022/11/21 09:48:29;;;;;;;3.77;1.30;;;;;;;10.27;67.34;97770.75;4957520;28;103983;-61
2022/11/21 09:51:02;;;;;;;5.00;1.40;;;;;;;11.10;66.65;97756.44;4961010;28;103937;-61
2022/11/21 09:53:35;;;;;;;2.40;0.77;;;;;;;11.24;65.64;97758.69;4954946;28;102652;-61
2022/11/21 09:56:08;;;;;;;3.33;1.20;;;;;;;11.85;64.96;97757.47;4956630;28;103622;-62
2022/11/21 09:58:42;;;;;;;5.60;1.40;;;;;;;11.91;64.32;97748.97;4956601;28;103976;-61
2022/11/21 10:01:12;;;;;;;5.10;1.50;;;;;;;11.74;64.37;97748.84;4955679;28;102967;-61
2022/11/21 10:03:43;;;;;;;3.90;1.23;;;;;;;11.57;64.31;97739.78;4957351;28;103130;-61
2022/11/21 10:06:19;;;;;;;2.37;0.90;;;;;;;11.98;64.54;97720.97;4962215;28;103069;-61
2022/11/21 10:08:58;;;;;;;2.40;1.00;;;;;;;12.72;64.65;97713.00;4954296;28;103255;-61
2022/11/21 10:12:35;;;;;;;3.73;1.33;;;;;;;12.57;61.57;97706.53;4954049;28;103177;-61
2022/11/21 10:14:42;;;;;;;4.73;1.03;;;;;;;12.37;61.50;97697.00;4955701;28;102691;-61
2022/11/21 10:17:22;;;;;;;3.13;1.27;;;;;;;11.97;60.26;97692.81;4957537;28;103836;-61
2022/11/21 10:20:12;;;;;;;3.97;1.00;;;;;;;12.53;58.97;97689.25;4956947;28;103955;-62
2022/11/21 10:23:02;;;;;;;1.77;0.80;;;;;;;12.21;60.76;97679.91;4954943;28;103316;-61
2022/11/21 10:25:36;;;;;;;2.83;1.20;;;;;;;12.03;61.54;97683.47;4953474;28;103002;-61
2022/11/21 10:28:13;;;;;;;3.73;1.10;;;;;;;11.71;60.44;97678.53;4955025;28;104135;-61
2022/11/21 10:30:44;;;;;;;2.87;0.97;;;;;;;11.72;60.24;97679.38;4955487;28;104001;-61
2022/11/21 10:33:17;;;;;;;3.20;1.03;;;;;;;11.86;59.86;97666.53;4957133;28;104169;-62
2022/11/21 10:35:50;;;;;;;2.67;1.00;;;;;;;11.93;59.69;97659.66;4952908;28;102752;-61
2022/11/21 10:38:22;;;;;;;2.43;1.00;;;;;;;12.55;60.41;97652.84;4955390;28;103593;-61
2022/11/21 10:40:54;;;;;;;2.57;1.00;;;;;;;12.53;60.12;97658.31;4955747;28;104295;-61
2022/11/21 10:46:20;;;;;;;3.23;1.13;;;;;;;11.73;60.46;97649.28;4965595;28;102690;-62
2022/11/21 10:48:55;;;;;;;6.67;1.13;;;;;;;11.96;61.62;97646.16;4955661;28;103899;-61
2022/11/21 10:51:37;;;;;;;1.90;0.90;;;;;;;11.54;61.27;97634.25;4959098;28;103692;-61
2022/11/21 10:56:54;;;;;;;2.83;1.00;;;;;;;11.17;61.60;97635.97;4966783;28;102667;-61
2022/11/21 10:59:27;;;;;;;8.30;1.10;;;;;;;10.74;62.33;97642.50;4955625;28;102795;-61
2022/11/21 11:01:59;;;;;;;3.20;1.50;;;;;;;9.41;70.43;97658.56;4953996;28;103670;-61
2022/11/21 11:04:29;;;;;;;5.00;2.60;;;;;;;9.00;75.59;97652.31;4962247;28;103338;-61
2022/11/21 11:07:22;;;;;;;3.87;2.03;;;;;;;9.88;73.45;97648.31;4961059;28;102607;-61
2022/11/21 11:09:52;;;;;;;3.03;1.53;;;;;;;10.44;72.64;97626.75;4961313;28;103069;-61
2022/11/21 11:12:23;;;;;;;1.90;0.97;;;;;;;9.48;74.62;97621.03;4961138;28;103266;-61
2022/11/21 11:14:56;;;;;;;3.97;1.30;;;;;;;10.34;73.71;97615.31;4958900;28;105063;-61
2022/11/21 11:17:29;;;;;;;3.00;0.90;;;;;;;10.57;70.13;97606.19;4963097;28;103107;-61
2022/11/21 11:20:04;;;;;;;10.33;5.77;;;;;;;10.30;70.72;97592.81;4961309;28;103593;-61
2022/11/21 11:22:32;;;;;;;5.47;1.77;;;;;;;9.43;73.96;97601.31;4963197;28;103851;-61
2022/11/21 11:25:04;;;;;;;15.23;8.90;;;;;;;9.53;74.70;97600.38;4959528;28;103778;-61
2022/11/21 11:27:32;;;;;;;4.50;1.97;;;;;;;9.76;72.33;97593.97;4961247;28;102687;-61
2022/11/21 11:30:07;;;;;;;3.40;1.50;;;;;;;9.78;73.29;97578.84;4959754;28;102705;-61
2022/11/21 11:32:39;;;;;;;3.73;1.67;;;;;;;10.80;72.51;97573.28;4954429;28;103679;-61
2022/11/21 11:35:21;;;;;;;4.43;1.17;;;;;;;11.22;69.99;97565.84;4954936;28;103867;-61
2022/11/21 11:37:59;;;;;;;3.43;1.20;;;;;;;10.33;69.64;97566.13;4961836;28;102780;-61
2022/11/21 11:40:32;;;;;;;2.20;1.50;;;;;;;11.19;68.18;97549.44;4962182;28;102762;-61
2022/11/21 11:49:09;;;;;;;4.07;1.60;;;;;;;11.58;69.00;97540.41;4954182;28;102672;-62
2022/11/21 11:51:54;;;;;;;6.70;1.50;;;;;;;11.10;65.84;97529.13;4955849;28;103604;-61
2022/11/21 11:54:26;;;;;;;1.20;0.90;;;;;;;12.07;61.55;97528.69;4950851;28;103970;-61
2022/11/21 11:56:55;;;;;;;4.23;0.90;;;;;;;12.18;55.30;97526.63;4954519;28;103165;-61
2022/11/21 11:59:28;;;;;;;5.13;2.40;;;;;;;12.80;54.23;97520.47;4958429;28;102922;-61
2022/11/21 12:02:02;;;;;;;5.83;1.83;;;;;;;13.19;52.48;97522.78;4951518;28;102662;-61
2022/11/21 12:04:45;;;;;;;5.03;1.13;;;;;;;13.17;52.95;97514.97;4955694;28;104224;-61
2022/11/21 12:07:21;;;;;;;1.63;0.80;;;;;;;13.33;53.57;97506.31;4957472;28;103300;-62
2022/11/21 12:10:18;;;;;;;1.80;0.90;;;;;;;12.74;54.29;97504.34;4950360;28;103673;-61
2022/11/21 12:12:49;;;;;;;2.37;1.20;;;;;;;12.24;54.98;97498.72;4958204;28;104487;-61
2022/11/21 12:18:17;;;;;;;2.20;1.17;;;;;;;12.67;54.32;97503.28;4953804;28;103204;-61
2022/11/21 12:20:53;;;;;;;2.53;0.93;;;;;;;12.63;54.69;97491.34;4955958;28;103109;-61
2022/11/21 12:23:24;;;;;;;3.97;1.27;;;;;;;12.29;54.83;97493.00;4937691;28;102839;-59